createdAt,value
2023-03-04T00:01:31.598Z,3.09
2023-03-04T00:03:58.591Z,3.10
2023-03-04T00:06:25.550Z,3.15
2023-03-04T00:08:52.480Z,2.86
2023-03-04T00:11:19.411Z,3.09
2023-03-04T00:13:46.319Z,2.95
2023-03-04T00:16:13.292Z,3.09
2023-03-04T00:18:40.192Z,3.14
2023-03-04T00:21:07.291Z,3.18
2023-03-04T00:23:34.186Z,2.87
2023-03-04T00:26:01.038Z,3.06
2023-03-04T00:28:28.324Z,2.89
2023-03-04T00:30:55.234Z,2.89
2023-03-04T00:33:22.263Z,2.74
2023-03-04T00:35:49.276Z,2.92
2023-03-04T00:38:16.194Z,2.91
2023-03-04T00:40:43.175Z,2.88
2023-03-04T00:43:10.073Z,2.94
2023-03-04T00:45:36.986Z,2.75
2023-03-04T00:48:03.974Z,3.01
2023-03-04T00:50:30.832Z,3.00
2023-03-04T00:52:57.806Z,2.96
2023-03-04T00:55:24.682Z,2.94
2023-03-04T00:57:51.568Z,2.87
2023-03-04T01:00:18.744Z,2.87
2023-03-04T01:02:45.693Z,2.86
2023-03-04T01:05:13.079Z,2.69
2023-03-04T01:07:40.073Z,2.61
2023-03-04T01:10:08.373Z,2.59
2023-03-04T01:12:35.253Z,2.67
2023-03-04T01:15:02.409Z,2.48
2023-03-04T01:17:29.223Z,2.68
2023-03-04T01:19:56.085Z,2.52
2023-03-04T01:22:22.899Z,2.59
2023-03-04T01:24:49.804Z,2.39
2023-03-04T01:27:17.166Z,2.47
2023-03-04T01:29:44.190Z,2.56
2023-03-04T01:32:11.513Z,2.17
2023-03-04T01:34:38.630Z,2.10
2023-03-04T01:37:05.660Z,2.37
2023-03-04T01:39:32.604Z,2.23
2023-03-04T01:42:00.024Z,2.30
2023-03-04T01:44:27.232Z,2.35
2023-03-04T01:46:56.178Z,2.40
2023-03-04T01:49:23.884Z,1.74
2023-03-04T01:51:54.140Z,2.28
2023-03-04T01:54:22.711Z,2.22
2023-03-04T01:56:51.639Z,2.38
2023-03-04T01:59:24.216Z,2.26
2023-03-04T02:01:58.881Z,2.33
2023-03-04T02:04:29.554Z,2.25
2023-03-04T02:06:58.352Z,2.32
2023-03-04T02:09:25.371Z,2.35
2023-03-04T02:11:53.071Z,2.17
2023-03-04T02:14:20.810Z,2.22
2023-03-04T02:16:49.128Z,2.18
2023-03-04T02:19:47.241Z,2.25
2023-03-04T02:22:14.233Z,2.36
2023-03-04T02:24:50.995Z,2.33
2023-03-04T02:27:18.508Z,2.27
2023-03-04T02:29:46.395Z,2.31
2023-03-04T02:32:14.713Z,2.16
2023-03-04T02:34:48.048Z,2.27
2023-03-04T02:37:17.039Z,2.08
2023-03-04T02:39:47.927Z,2.11
2023-03-04T02:42:15.504Z,1.87
2023-03-04T02:44:46.698Z,1.89
2023-03-04T02:47:18.076Z,1.60
2023-03-04T02:49:45.431Z,1.28
2023-03-04T02:52:20.721Z,1.86
2023-03-04T02:54:47.968Z,1.92
2023-03-04T02:57:15.717Z,1.91
2023-03-04T02:59:42.619Z,2.00
2023-03-04T03:02:10.350Z,2.02
2023-03-04T03:04:38.892Z,2.08
2023-03-04T03:07:06.365Z,2.07
2023-03-04T03:09:33.226Z,1.95
2023-03-04T03:12:00.173Z,1.78
2023-03-04T03:14:27.115Z,1.74
2023-03-04T03:16:53.974Z,1.88
2023-03-04T03:19:20.850Z,1.86
2023-03-04T03:21:47.797Z,1.84
2023-03-04T03:24:15.464Z,1.87
2023-03-04T03:26:42.370Z,1.68
2023-03-04T03:29:09.245Z,1.67
2023-03-04T03:31:36.234Z,1.40
2023-03-04T03:34:03.180Z,1.41
2023-03-04T03:36:30.132Z,1.65
2023-03-04T03:38:58.000Z,1.62
2023-03-04T03:41:25.038Z,1.54
2023-03-04T03:43:51.940Z,1.64
2023-03-04T03:46:18.835Z,1.57
2023-03-04T03:48:45.797Z,1.57
2023-03-04T03:51:12.710Z,1.68
2023-03-04T03:53:39.661Z,1.53
2023-03-04T03:56:07.071Z,1.65
2023-03-04T03:58:34.019Z,1.42
2023-03-04T04:01:00.919Z,1.31
2023-03-04T04:03:27.811Z,1.39
2023-03-04T04:05:54.671Z,1.43
2023-03-04T04:08:21.611Z,1.56
2023-03-04T04:10:49.079Z,1.46
2023-03-04T04:13:15.930Z,1.56
2023-03-04T04:15:42.820Z,1.42
2023-03-04T04:18:09.760Z,1.21
2023-03-04T04:20:36.979Z,1.18
2023-03-04T04:23:04.505Z,1.33
2023-03-04T04:25:31.536Z,1.25
2023-03-04T04:27:58.612Z,1.21
2023-03-04T04:30:25.783Z,1.23
2023-03-04T04:32:52.768Z,0.80
2023-03-04T04:35:19.920Z,0.88
2023-03-04T04:37:47.084Z,1.04
2023-03-04T04:40:14.239Z,0.43
2023-03-04T04:42:41.309Z,0.14
2023-03-04T04:45:08.916Z,0.53
2023-03-04T04:47:35.844Z,0.83
2023-03-04T04:50:03.204Z,0.80
2023-03-04T04:52:30.153Z,0.72
2023-03-04T04:54:57.294Z,0.97
2023-03-04T04:57:24.315Z,0.99
2023-03-04T04:59:51.275Z,0.87
2023-03-04T05:02:18.174Z,0.86
2023-03-04T05:04:45.113Z,0.79
2023-03-04T05:07:12.010Z,0.94
2023-03-04T05:09:38.973Z,1.08
2023-03-04T05:12:06.014Z,1.13
2023-03-04T05:14:32.966Z,1.11
2023-03-04T05:16:59.967Z,1.11
2023-03-04T05:19:27.125Z,1.09
2023-03-04T05:21:54.163Z,0.83
2023-03-04T05:24:21.759Z,0.51
2023-03-04T05:26:48.751Z,0.61
2023-03-04T05:29:15.678Z,0.90
2023-03-04T05:31:42.559Z,1.00
2023-03-04T05:34:09.415Z,0.74
2023-03-04T05:36:36.552Z,1.04
2023-03-04T05:39:03.573Z,0.91
2023-03-04T05:41:30.705Z,1.09
2023-03-04T05:43:57.880Z,0.50
2023-03-04T05:46:25.883Z,0.78
2023-03-04T05:48:54.381Z,0.64
2023-03-04T05:51:22.160Z,1.01
2023-03-04T05:53:49.501Z,1.22
2023-03-04T05:56:19.200Z,1.01
2023-03-04T05:58:47.780Z,1.20
2023-03-04T06:01:14.826Z,1.35
2023-03-04T06:03:43.741Z,2.03
2023-03-04T06:06:10.898Z,2.10
2023-03-04T06:08:37.885Z,2.48
2023-03-04T06:11:05.855Z,2.77
2023-03-04T06:13:33.314Z,3.16
2023-03-04T06:16:00.902Z,3.56
2023-03-04T06:18:29.045Z,3.71
2023-03-04T06:20:58.697Z,4.23
2023-03-04T06:23:26.337Z,4.75
2023-03-04T06:25:55.398Z,5.34
2023-03-04T06:28:23.022Z,5.80
2023-03-04T06:30:53.262Z,6.25
2023-03-04T06:33:20.481Z,6.34
2023-03-04T06:35:48.014Z,6.93
2023-03-04T06:38:15.306Z,7.18
2023-03-04T06:40:42.278Z,7.64
2023-03-04T06:43:09.285Z,8.16
2023-03-04T06:45:36.168Z,8.72
2023-03-04T06:48:03.194Z,9.14
2023-03-04T06:50:30.138Z,9.38
2023-03-04T06:52:58.084Z,9.71
2023-03-04T06:55:25.248Z,10.30
2023-03-04T06:57:52.197Z,10.40
2023-03-04T07:00:20.000Z,10.81
2023-03-04T07:02:47.032Z,10.96
2023-03-04T07:05:14.250Z,11.50
2023-03-04T07:07:41.288Z,11.92
2023-03-04T07:10:10.338Z,12.21
2023-03-04T07:12:37.292Z,12.38
2023-03-04T07:15:04.600Z,12.80
2023-03-04T07:17:31.843Z,12.85
2023-03-04T07:19:58.757Z,13.16
2023-03-04T07:22:25.768Z,13.56
2023-03-04T07:24:52.781Z,13.74
2023-03-04T07:27:19.726Z,13.78
2023-03-04T07:29:46.774Z,14.17
2023-03-04T07:32:14.148Z,14.35
2023-03-04T07:34:41.203Z,14.62
2023-03-04T07:37:08.251Z,14.94
2023-03-04T07:39:35.298Z,15.05
2023-03-04T07:42:02.299Z,15.22
2023-03-04T07:44:29.444Z,15.41
2023-03-04T07:46:56.443Z,15.42
2023-03-04T07:49:23.483Z,15.55
2023-03-04T07:51:50.509Z,15.72
2023-03-04T07:54:20.309Z,16.17
2023-03-04T07:56:47.154Z,15.92
2023-03-04T07:59:14.186Z,16.04
2023-03-04T08:01:41.142Z,15.88
2023-03-04T08:04:08.411Z,16.08
2023-03-04T08:06:35.795Z,16.31
2023-03-04T08:09:06.642Z,16.64
2023-03-04T08:11:34.882Z,16.90
2023-03-04T08:14:01.941Z,16.93
2023-03-04T08:16:29.127Z,17.08
2023-03-04T08:18:58.249Z,16.99
2023-03-04T08:21:27.451Z,17.19
2023-03-04T08:23:55.470Z,16.88
2023-03-04T08:26:26.513Z,16.62
2023-03-04T08:28:54.731Z,15.05
2023-03-04T08:31:21.900Z,15.82
2023-03-04T08:33:49.447Z,15.91
2023-03-04T08:36:16.616Z,16.30
2023-03-04T08:38:43.718Z,16.57
2023-03-04T08:41:10.829Z,16.68
2023-03-04T08:43:37.874Z,17.00
2023-03-04T08:46:05.738Z,17.05
2023-03-04T08:48:32.944Z,17.09
2023-03-04T08:51:00.487Z,17.47
2023-03-04T08:53:27.564Z,17.41
2023-03-04T08:55:54.645Z,17.80
2023-03-04T08:58:21.810Z,18.11
2023-03-04T09:00:51.791Z,18.03
2023-03-04T09:03:20.646Z,18.00
2023-03-04T09:05:48.685Z,18.44
2023-03-04T09:08:17.167Z,18.67
2023-03-04T09:10:46.131Z,18.69
2023-03-04T09:13:16.394Z,18.87
2023-03-04T09:15:48.181Z,18.90
2023-03-04T09:18:16.004Z,19.23
2023-03-04T09:20:43.854Z,19.65
2023-03-04T09:23:11.192Z,19.14
2023-03-04T09:25:38.889Z,19.16
2023-03-04T09:28:07.078Z,19.18
2023-03-04T09:30:35.308Z,19.06
2023-03-04T09:33:02.638Z,19.34
2023-03-04T09:35:32.770Z,19.70
2023-03-04T09:38:00.432Z,19.43
2023-03-04T09:40:33.776Z,19.63
2023-03-04T09:43:04.239Z,19.71
2023-03-04T09:45:47.472Z,20.68
2023-03-04T09:48:18.162Z,20.19
2023-03-04T09:51:02.667Z,20.03
2023-03-04T09:53:49.806Z,19.87
2023-03-04T09:56:17.007Z,20.10
2023-03-04T09:59:02.358Z,19.94
2023-03-04T10:01:42.123Z,19.99
2023-03-04T10:04:25.695Z,20.18
2023-03-04T10:06:54.872Z,20.58
2023-03-04T10:10:06.775Z,20.12
2023-03-04T10:12:38.153Z,20.31
2023-03-04T10:15:17.686Z,20.08
2023-03-04T10:17:49.053Z,20.38
2023-03-04T10:20:22.043Z,21.26
2023-03-04T10:22:53.811Z,20.55
2023-03-04T10:25:20.605Z,20.80
2023-03-04T10:27:55.080Z,21.01
2023-03-04T10:30:31.052Z,20.75
2023-03-04T10:32:58.184Z,21.09
2023-03-04T10:35:33.556Z,21.19
2023-03-04T10:38:03.590Z,21.71
2023-03-04T10:40:38.902Z,21.89
2023-03-04T10:43:09.064Z,21.83
2023-03-04T10:45:40.697Z,22.17
2023-03-04T10:48:19.845Z,21.93
2023-03-04T10:50:47.024Z,21.90
2023-03-04T10:53:33.726Z,22.11
2023-03-04T10:56:01.036Z,22.56
2023-03-04T10:58:27.988Z,21.84
2023-03-04T11:01:04.404Z,22.25
2023-03-04T11:03:34.905Z,21.99
2023-03-04T11:06:32.760Z,22.00
2023-03-04T11:09:00.538Z,21.94
2023-03-04T11:11:44.990Z,22.49
2023-03-04T11:14:24.509Z,22.67
2023-03-04T11:16:55.797Z,22.77
2023-03-04T11:19:26.466Z,22.66
2023-03-04T11:21:54.214Z,22.49
2023-03-04T11:24:29.583Z,22.84
2023-03-04T11:27:13.379Z,23.14
2023-03-04T11:29:46.394Z,23.12
2023-03-04T11:32:24.389Z,23.59
2023-03-04T11:35:03.540Z,23.18
2023-03-04T11:37:36.517Z,23.49
2023-03-04T11:40:07.507Z,23.49
2023-03-04T11:42:55.982Z,23.62
2023-03-04T11:45:46.671Z,23.28
2023-03-04T11:48:33.250Z,23.48
2023-03-04T11:51:00.053Z,22.62
2023-03-04T11:53:38.996Z,23.26
2023-03-04T11:56:25.048Z,23.56
2023-03-04T11:59:10.689Z,23.80
2023-03-04T12:01:46.710Z,23.86
2023-03-04T12:04:29.020Z,23.66
2023-03-04T12:07:21.488Z,23.51
2023-03-04T12:09:58.388Z,23.68
2023-03-04T12:12:50.260Z,24.34
2023-03-04T12:15:20.380Z,24.39
2023-03-04T12:17:53.904Z,23.87
2023-03-04T12:20:42.474Z,23.91
2023-03-04T12:23:09.372Z,23.71
2023-03-04T12:25:55.893Z,23.95
2023-03-04T12:28:26.099Z,23.92
2023-03-04T12:31:11.477Z,23.87
2023-03-04T12:33:45.402Z,23.63
2023-03-04T12:36:24.460Z,23.53
2023-03-04T12:39:23.928Z,22.55
2023-03-04T12:42:02.778Z,22.52
2023-03-04T12:44:42.160Z,22.65
2023-03-04T12:47:18.965Z,23.40
2023-03-04T12:50:19.890Z,23.21
2023-03-04T12:53:05.329Z,23.46
2023-03-04T12:55:42.366Z,23.29
2023-03-04T12:58:25.353Z,21.53
2023-03-04T13:01:21.799Z,22.38
2023-03-04T13:04:23.456Z,18.16
2023-03-04T13:07:14.965Z,20.40
2023-03-04T13:09:58.774Z,20.49
2023-03-04T13:12:25.841Z,20.59
2023-03-04T13:15:07.775Z,20.37
2023-03-04T13:17:45.716Z,20.28
2023-03-04T13:20:32.265Z,20.74
2023-03-04T13:23:26.448Z,18.21
2023-03-04T13:25:56.656Z,19.86
2023-03-04T13:28:25.431Z,19.91
2023-03-04T13:30:52.266Z,19.20
2023-03-04T13:33:21.953Z,20.11
2023-03-04T13:35:48.947Z,20.12
2023-03-04T13:38:35.106Z,19.67
2023-03-04T13:41:20.093Z,19.83
2023-03-04T13:43:47.809Z,19.26
2023-03-04T13:46:20.847Z,17.86
2023-03-04T13:48:51.077Z,18.94
2023-03-04T13:51:41.612Z,19.13
2023-03-04T13:54:16.584Z,18.54
2023-03-04T13:56:47.718Z,19.34
2023-03-04T14:00:00.295Z,19.30
2023-03-04T14:02:27.512Z,19.48
2023-03-04T14:04:54.401Z,19.51
2023-03-04T14:07:33.327Z,19.66
2023-03-04T14:10:12.781Z,19.63
2023-03-04T14:12:53.106Z,19.56
2023-03-04T14:15:31.363Z,19.74
2023-03-04T14:18:01.282Z,19.54
2023-03-04T14:20:32.439Z,20.06
2023-03-04T14:23:01.518Z,20.14
2023-03-04T14:25:31.719Z,19.82
2023-03-04T14:28:19.308Z,20.12
2023-03-04T14:30:57.422Z,19.76
2023-03-04T14:33:31.492Z,20.06
2023-03-04T14:36:02.919Z,19.99
2023-03-04T14:38:38.315Z,20.32
2023-03-04T14:41:21.360Z,20.26
2023-03-04T14:43:55.486Z,20.34
2023-03-04T14:46:24.992Z,20.43
2023-03-04T14:48:54.428Z,19.84
2023-03-04T14:51:41.858Z,19.83
2023-03-04T14:54:34.060Z,19.59
2023-03-04T14:57:21.244Z,19.13
2023-03-04T14:59:48.294Z,18.87
2023-03-04T15:02:31.625Z,18.32
2023-03-04T15:05:01.956Z,18.58
2023-03-04T15:07:35.612Z,17.72
2023-03-04T15:10:06.910Z,17.67
2023-03-04T15:12:39.737Z,17.10
2023-03-04T15:15:43.798Z,16.84
2023-03-04T15:18:23.690Z,16.79
2023-03-04T15:21:19.855Z,16.62
2023-03-04T15:23:47.518Z,16.97
2023-03-04T15:26:14.595Z,17.03
2023-03-04T15:28:42.574Z,17.12
2023-03-04T15:31:24.815Z,17.37
2023-03-04T15:33:53.020Z,17.40
2023-03-04T15:36:23.084Z,16.77
2023-03-04T15:38:52.653Z,17.07
2023-03-04T15:41:27.060Z,16.71
2023-03-04T15:43:54.714Z,16.95
2023-03-04T15:46:22.474Z,17.01
2023-03-04T15:48:49.836Z,17.10
2023-03-04T15:51:22.361Z,17.06
2023-03-04T15:53:52.791Z,16.41
2023-03-04T15:56:23.424Z,16.13
2023-03-04T15:58:55.770Z,16.15
2023-03-04T16:01:23.793Z,15.87
2023-03-04T16:03:53.498Z,16.09
2023-03-04T16:06:24.698Z,16.27
2023-03-04T16:08:52.285Z,16.31
2023-03-04T16:11:25.981Z,16.38
2023-03-04T16:13:53.343Z,16.03
2023-03-04T16:16:20.614Z,16.08
2023-03-04T16:18:47.821Z,16.17
2023-03-04T16:21:18.491Z,16.04
2023-03-04T16:23:47.877Z,16.00
2023-03-04T16:26:18.249Z,15.90
2023-03-04T16:28:45.455Z,15.70
2023-03-04T16:31:14.534Z,15.71
2023-03-04T16:33:42.231Z,15.72
2023-03-04T16:36:17.216Z,15.82
2023-03-04T16:38:44.625Z,15.72
2023-03-04T16:41:14.910Z,15.64
2023-03-04T16:43:43.119Z,15.22
2023-03-04T16:46:14.007Z,15.39
2023-03-04T16:48:41.409Z,14.40
2023-03-04T16:51:17.172Z,14.40
2023-03-04T16:53:49.463Z,13.89
2023-03-04T16:56:18.814Z,13.95
2023-03-04T16:58:46.897Z,14.29
2023-03-04T17:01:24.794Z,14.09
2023-03-04T17:03:52.697Z,13.82
2023-03-04T17:06:21.083Z,13.84
2023-03-04T17:08:48.129Z,13.93
2023-03-04T17:11:21.517Z,13.85
2023-03-04T17:13:49.721Z,13.84
2023-03-04T17:16:17.841Z,13.95
2023-03-04T17:18:46.259Z,13.46
2023-03-04T17:21:20.738Z,13.62
2023-03-04T17:23:47.785Z,13.69
2023-03-04T17:26:15.831Z,13.67
2023-03-04T17:28:43.481Z,13.63
2023-03-04T17:31:16.636Z,13.65
2023-03-04T17:33:44.181Z,13.58
2023-03-04T17:36:12.862Z,13.63
2023-03-04T17:38:39.980Z,13.67
2023-03-04T17:41:09.589Z,13.58
2023-03-04T17:43:36.699Z,13.48
2023-03-04T17:46:09.649Z,13.40
2023-03-04T17:48:36.821Z,13.38
2023-03-04T17:51:04.155Z,13.31
2023-03-04T17:53:31.640Z,13.33
2023-03-04T17:56:01.145Z,13.02
2023-03-04T17:58:29.868Z,13.11
2023-03-04T18:01:06.855Z,12.62
2023-03-04T18:03:34.081Z,12.04
2023-03-04T18:06:01.253Z,12.38
2023-03-04T18:08:28.261Z,12.28
2023-03-04T18:10:55.199Z,12.09
2023-03-04T18:13:22.168Z,11.56
2023-03-04T18:15:49.121Z,11.89
2023-03-04T18:18:16.241Z,11.88
2023-03-04T18:20:43.167Z,12.07
2023-03-04T18:23:10.240Z,11.06
2023-03-04T18:25:37.352Z,11.05
2023-03-04T18:28:04.512Z,11.35
2023-03-04T18:30:31.654Z,11.49
2023-03-04T18:33:02.860Z,11.17
2023-03-04T18:35:29.990Z,10.75
2023-03-04T18:37:56.864Z,10.24
2023-03-04T18:40:23.987Z,10.77
2023-03-04T18:42:51.249Z,10.88
2023-03-04T18:45:18.497Z,10.55
2023-03-04T18:47:49.469Z,10.66
2023-03-04T18:50:16.849Z,10.62
2023-03-04T18:52:44.498Z,10.82
2023-03-04T18:55:13.194Z,10.62
2023-03-04T18:57:47.080Z,10.65
2023-03-04T19:00:24.428Z,10.38
2023-03-04T19:03:03.084Z,10.52
2023-03-04T19:05:32.463Z,10.52
2023-03-04T19:08:00.067Z,10.88
2023-03-04T19:10:29.158Z,10.39
2023-03-04T19:12:57.669Z,10.64
2023-03-04T19:15:24.619Z,10.88
2023-03-04T19:17:51.841Z,10.42
2023-03-04T19:20:19.073Z,10.40
2023-03-04T19:22:46.393Z,10.06
2023-03-04T19:25:13.492Z,9.90
2023-03-04T19:27:40.515Z,10.08
2023-03-04T19:30:08.586Z,9.24
2023-03-04T19:32:35.786Z,9.15
2023-03-04T19:35:03.047Z,9.10
2023-03-04T19:37:30.186Z,8.70
2023-03-04T19:39:57.167Z,9.02
2023-03-04T19:42:24.365Z,8.96
2023-03-04T19:44:51.684Z,8.77
2023-03-04T19:47:18.609Z,8.67
2023-03-04T19:49:45.654Z,8.14
2023-03-04T19:52:12.587Z,8.04
2023-03-04T19:54:39.597Z,7.71
2023-03-04T19:57:07.123Z,8.06
2023-03-04T19:59:35.118Z,7.68
2023-03-04T20:02:03.237Z,7.53
2023-03-04T20:04:30.177Z,7.09
2023-03-04T20:06:57.385Z,6.71
2023-03-04T20:09:25.148Z,6.73
2023-03-04T20:11:58.746Z,6.30
2023-03-04T20:14:27.723Z,6.40
2023-03-04T20:16:58.996Z,6.41
2023-03-04T20:19:25.980Z,6.12
2023-03-04T20:21:52.999Z,6.01
2023-03-04T20:24:23.389Z,6.15
2023-03-04T20:26:51.117Z,6.25
2023-03-04T20:29:18.685Z,6.10
2023-03-04T20:31:46.585Z,6.14
2023-03-04T20:34:13.742Z,6.34
2023-03-04T20:36:40.838Z,6.37
2023-03-04T20:39:25.773Z,6.24
2023-03-04T20:41:55.673Z,6.18
2023-03-04T20:44:22.652Z,5.98
2023-03-04T20:46:49.584Z,6.05
2023-03-04T20:49:27.564Z,6.57
2023-03-04T20:51:58.254Z,6.21
2023-03-04T20:54:25.234Z,6.06
2023-03-04T20:56:52.226Z,6.37
2023-03-04T20:59:19.255Z,6.33
2023-03-04T21:01:48.250Z,5.77
2023-03-04T21:04:15.362Z,6.10
2023-03-04T21:06:43.777Z,5.91
2023-03-04T21:09:14.672Z,5.95
2023-03-04T21:11:42.884Z,6.27
2023-03-04T21:14:26.130Z,6.51
2023-03-04T21:16:55.816Z,6.45
2023-03-04T21:19:25.548Z,6.24
2023-03-04T21:21:52.476Z,6.04
2023-03-04T21:24:26.518Z,5.73
2023-03-04T21:26:53.608Z,6.30
2023-03-04T21:29:24.060Z,5.68
2023-03-04T21:31:54.394Z,6.38
2023-03-04T21:34:33.858Z,6.16
2023-03-04T21:37:01.600Z,6.33
2023-03-04T21:39:28.790Z,6.38
2023-03-04T21:41:57.387Z,6.34
2023-03-04T21:44:28.682Z,6.60
2023-03-04T21:47:01.019Z,5.82
2023-03-04T21:49:28.205Z,6.36
2023-03-04T21:51:55.165Z,6.60
2023-03-04T21:54:22.651Z,6.56
2023-03-04T21:56:50.471Z,5.74
2023-03-04T21:59:20.254Z,6.42
2023-03-04T22:01:47.280Z,6.03
2023-03-04T22:04:14.449Z,6.20
2023-03-04T22:06:41.562Z,6.40
2023-03-04T22:09:08.623Z,6.11
2023-03-04T22:11:35.675Z,6.14
2023-03-04T22:14:03.542Z,6.07
2023-03-04T22:16:35.412Z,6.26
2023-03-04T22:19:04.883Z,6.14
2023-03-04T22:21:31.847Z,6.34
2023-03-04T22:23:59.030Z,6.40
2023-03-04T22:26:31.981Z,6.40
2023-03-04T22:29:01.121Z,5.97
2023-03-04T22:31:31.697Z,6.45
2023-03-04T22:34:17.079Z,6.46
2023-03-04T22:36:45.761Z,6.50
2023-03-04T22:39:15.749Z,6.41
2023-03-04T22:41:42.964Z,6.24
2023-03-04T22:44:10.076Z,6.21
2023-03-04T22:46:39.326Z,6.23
2023-03-04T22:49:10.148Z,6.01
2023-03-04T22:51:38.103Z,6.30
2023-03-04T22:54:05.192Z,6.09
2023-03-04T22:56:32.115Z,6.12
2023-03-04T22:58:59.302Z,5.81
2023-03-04T23:01:26.244Z,6.16
2023-03-04T23:03:53.262Z,5.90
2023-03-04T23:06:23.102Z,6.08
2023-03-04T23:08:51.280Z,6.31
2023-03-04T23:11:25.585Z,6.13
2023-03-04T23:13:54.306Z,6.04
2023-03-04T23:16:22.317Z,6.08
2023-03-04T23:18:50.003Z,5.53
2023-03-04T23:21:22.680Z,5.98
2023-03-04T23:23:51.076Z,5.87
2023-03-04T23:26:23.843Z,6.12
2023-03-04T23:28:51.200Z,6.02
2023-03-04T23:31:19.145Z,5.95
2023-03-04T23:33:47.941Z,6.15
2023-03-04T23:36:17.572Z,6.20
2023-03-04T23:38:48.543Z,6.14
2023-03-04T23:41:21.338Z,6.16
2023-03-04T23:43:48.825Z,6.13
2023-03-04T23:46:16.341Z,6.22
2023-03-04T23:48:46.482Z,6.26
2023-03-04T23:51:19.030Z,6.07
2023-03-04T23:53:46.326Z,6.09
2023-03-04T23:56:15.713Z,5.97
2023-03-04T23:58:43.000Z,5.98
